Time;durP1;ratioP1;P1;durP2;ratioP2;P2;SDS_P1;SDS_P2;PMS_P1;PMS_P2;Temp;Humidity;BMP_temperature;BMP_pressure;BME280_temperature;BME280_humidity;BME280_pressure;Samples;Min_cycle;Max_cycle;Signal;HPM_P1;HPM_P2
2022/12/21 00:00:20;;;;;;;2.08;1.90;;;;;;;17.87;52.54;100835.84;4854728;29;20057;-64
2022/12/21 00:02:46;;;;;;;4.63;2.58;;;;;;;17.86;52.62;100840.44;4869553;29;20076;-63
2022/12/21 00:05:12;;;;;;;2.30;2.08;;;;;;;17.88;53.03;100835.69;4882566;29;20036;-64
2022/12/21 00:07:38;;;;;;;3.22;2.33;;;;;;;17.86;52.04;100829.59;4860599;29;20500;-63
2022/12/21 00:10:04;;;;;;;2.42;2.05;;;;;;;17.88;53.14;100842.97;4874884;29;20037;-64
2022/12/21 00:12:30;;;;;;;3.90;2.40;;;;;;;17.87;52.20;100836.69;4859429;29;20028;-64
2022/12/21 00:14:56;;;;;;;5.43;2.63;;;;;;;17.85;52.80;100841.44;4875631;29;20052;-64
2022/12/21 00:17:21;;;;;;;3.92;2.67;;;;;;;17.85;52.08;100838.75;4888942;29;20048;-64
2022/12/21 00:19:47;;;;;;;5.30;2.38;;;;;;;17.85;52.19;100838.75;4873696;29;20043;-63
2022/12/21 00:22:12;;;;;;;4.38;2.85;;;;;;;17.85;52.36;100841.44;4844676;29;20040;-64
2022/12/21 00:24:38;;;;;;;4.35;2.70;;;;;;;17.84;52.06;100834.31;4865638;29;20044;-64
2022/12/21 00:27:03;;;;;;;4.32;3.15;;;;;;;17.83;52.77;100827.25;4860877;29;20041;-65
2022/12/21 00:29:30;;;;;;;6.65;2.72;;;;;;;17.84;52.78;100826.19;4875298;29;20108;-64
2022/12/21 00:31:56;;;;;;;4.47;3.13;;;;;;;17.83;52.99;100835.38;4859986;29;20128;-64
2022/12/21 00:34:22;;;;;;;5.05;3.72;;;;;;;17.84;51.94;100842.44;4863381;29;20111;-64
2022/12/21 00:36:49;;;;;;;4.75;2.92;;;;;;;17.83;52.73;100831.81;4858053;29;20032;-64
2022/12/21 00:39:15;;;;;;;5.90;2.80;;;;;;;17.80;52.69;100835.72;4872579;29;20033;-64
2022/12/21 00:41:41;;;;;;;3.70;2.47;;;;;;;17.79;52.83;100842.16;4874698;29;20033;-63
2022/12/21 00:44:07;;;;;;;5.28;3.33;;;;;;;17.80;52.09;100834.88;4873014;29;20100;-64
2022/12/21 00:46:34;;;;;;;6.70;3.65;;;;;;;17.78;51.94;100829.59;4859682;29;20120;-64
2022/12/21 00:49:05;;;;;;;6.20;3.20;;;;;;;17.80;51.94;100826.72;4860166;29;20063;-64
2022/12/21 00:51:33;;;;;;;7.28;3.60;;;;;;;17.79;52.67;100842.16;4878433;29;20044;-64
2022/12/21 00:53:59;;;;;;;7.22;3.38;;;;;;;17.79;52.01;100830.44;4869130;29;20032;-64
2022/12/21 00:56:25;;;;;;;6.25;3.30;;;;;;;17.79;52.43;100834.00;4868635;29;20039;-64
2022/12/21 00:58:51;;;;;;;8.65;3.47;;;;;;;17.80;52.40;100840.28;4883423;29;20037;-63
2022/12/21 01:01:20;;;;;;;9.55;3.72;;;;;;;17.78;52.16;100839.63;4883435;29;20111;-64
2022/12/21 01:03:45;;;;;;;9.45;3.60;;;;;;;17.77;51.85;100833.34;4883505;29;20048;-64
2022/12/21 01:06:19;;;;;;;6.90;3.85;;;;;;;17.79;53.08;100825.03;4867725;29;20033;-63
2022/12/21 01:08:45;;;;;;;7.20;3.67;;;;;;;17.76;52.29;100834.38;4883223;29;20033;-64
2022/12/21 01:11:13;;;;;;;7.47;4.00;;;;;;;17.76;51.88;100839.78;4883019;29;20041;-64
2022/12/21 01:13:39;;;;;;;5.93;3.63;;;;;;;17.76;53.06;100837.06;4867305;29;20375;-64
2022/12/21 01:16:10;;;;;;;6.88;3.38;;;;;;;17.75;52.71;100840.81;4882872;29;20035;-64
2022/12/21 01:18:36;;;;;;;5.50;2.95;;;;;;;17.71;52.67;100839.47;4867359;29;20119;-64
2022/12/21 01:21:01;;;;;;;7.85;4.22;;;;;;;17.70;52.23;100843.19;4867776;29;20056;-64
2022/12/21 01:23:26;;;;;;;5.85;3.42;;;;;;;17.69;53.34;100846.94;4867981;29;20493;-64
2022/12/21 01:25:52;;;;;;;6.22;3.92;;;;;;;17.68;52.95;100852.50;4867364;29;20044;-63
2022/12/21 01:28:17;;;;;;;8.02;3.60;;;;;;;17.69;52.56;100855.06;4867038;29;20119;-64
2022/12/21 01:30:43;;;;;;;9.77;3.72;;;;;;;17.68;52.59;100863.34;4882838;29;20032;-64
2022/12/21 01:33:16;;;;;;;9.50;4.20;;;;;;;17.69;52.85;100868.59;4867426;29;20047;-64
2022/12/21 01:35:43;;;;;;;8.57;4.28;;;;;;;17.70;52.95;100872.16;4881969;29;20064;-64
2022/12/21 01:38:09;;;;;;;10.35;3.88;;;;;;;17.67;52.43;100870.63;4867332;29;20037;-64
2022/12/21 01:40:35;;;;;;;9.60;4.35;;;;;;;17.68;52.45;100868.78;4867364;29;20060;-64
2022/12/21 01:43:00;;;;;;;9.63;3.97;;;;;;;17.67;52.92;100864.38;4867421;29;20052;-64
2022/12/21 01:45:29;;;;;;;8.52;4.30;;;;;;;17.68;51.66;100866.91;4866984;29;20115;-64
2022/12/21 01:48:01;;;;;;;9.50;4.65;;;;;;;17.69;51.93;100874.03;4882232;29;20135;-64
2022/12/21 01:50:46;;;;;;;8.65;4.20;;;;;;;17.67;52.22;100870.63;4866879;29;20037;-64
2022/12/21 01:53:17;;;;;;;11.77;4.50;;;;;;;17.67;53.38;100861.69;4882457;29;20032;-64
2022/12/21 01:55:45;;;;;;;11.15;5.13;;;;;;;17.64;52.22;100854.75;4881954;29;20040;-63
2022/12/21 01:58:10;;;;;;;7.35;4.40;;;;;;;17.67;51.85;100856.25;4867036;29;20185;-63
2022/12/21 02:00:36;;;;;;;9.18;3.88;;;;;;;17.65;52.32;100867.25;4881944;29;20120;-64
2022/12/21 02:03:05;;;;;;;9.88;5.63;;;;;;;17.62;52.64;100870.31;4866376;29;20065;-63
2022/12/21 02:05:44;;;;;;;10.43;4.72;;;;;;;17.62;53.22;100867.59;4882135;29;20033;-63
2022/12/21 02:08:09;;;;;;;10.65;4.93;;;;;;;17.61;52.49;100865.94;4866261;29;20045;-64
2022/12/21 02:10:35;;;;;;;9.20;4.20;;;;;;;17.61;53.46;100862.38;4866551;29;20036;-64
2022/12/21 02:13:04;;;;;;;8.38;4.57;;;;;;;17.60;52.37;100866.09;4882359;29;20469;-63
2022/12/21 02:15:42;;;;;;;11.27;4.47;;;;;;;17.60;52.84;100863.38;4867007;29;20048;-65
2022/12/21 02:18:42;;;;;;;8.80;4.53;;;;;;;17.60;52.51;100864.22;4865923;29;20040;-64
2022/12/21 02:21:20;;;;;;;10.25;4.50;;;;;;;17.58;53.08;100862.72;4884606;29;20100;-64
2022/12/21 02:24:24;;;;;;;13.32;4.50;;;;;;;17.58;51.69;100866.28;4867064;29;20441;-64
2022/12/21 02:26:50;;;;;;;8.68;4.25;;;;;;;17.57;53.20;100863.72;4880865;29;20036;-64
2022/12/21 02:30:00;;;;;;;10.43;4.70;;;;;;;17.58;52.45;100865.41;4882279;29;20127;-64
2022/12/21 02:33:07;;;;;;;14.43;4.82;;;;;;;17.57;52.16;100866.44;4856311;29;20521;-64
2022/12/21 02:36:29;;;;;;;10.65;5.47;;;;;;;17.53;52.13;100857.78;4872780;29;20120;-64
2022/12/21 02:39:22;;;;;;;11.90;4.97;;;;;;;17.55;52.89;100849.50;4865940;29;20032;-64
2022/12/21 02:42:02;;;;;;;;;;;;;;;17.53;52.43;100846.97;4900634;29;20052;-64
2022/12/21 02:44:55;;;;;;;9.73;4.85;;;;;;;17.52;51.98;100850.69;4866420;29;20496;-64
2022/12/21 02:47:52;;;;;;;7.83;3.77;;;;;;;17.50;52.78;100847.31;4863010;29;20064;-63
2022/12/21 02:50:24;;;;;;;23.67;4.45;;;;;;;17.45;52.66;100831.56;4898727;29;20176;-63
2022/12/21 02:52:57;;;;;;;8.93;3.40;;;;;;;17.46;52.31;100832.41;4867193;29;20033;-63
2022/12/21 02:55:25;;;;;;;8.40;4.10;;;;;;;17.43;52.16;100825.47;4882357;29;20029;-64
2022/12/21 02:58:14;;;;;;;14.93;4.13;;;;;;;17.41;52.65;100827.53;4867554;29;20442;-63
2022/12/21 03:00:54;;;;;;;8.77;3.60;;;;;;;17.42;53.27;100825.63;4882497;29;20044;-64
2022/12/21 03:04:31;;;;;;;11.18;5.15;;;;;;;17.41;52.06;100826.66;4897301;29;20540;-64
2022/12/21 03:07:12;;;;;;;10.10;3.55;;;;;;;17.37;52.26;100819.91;4823067;29;20062;-63
2022/12/21 03:10:05;;;;;;;10.73;4.03;;;;;;;17.37;52.40;100822.59;4807485;29;20055;-64
2022/12/21 03:12:30;;;;;;;;;;;;;;;17.35;52.88;100821.94;4823187;29;20043;-64
2022/12/21 03:14:59;;;;;;;9.05;4.03;;;;;;;17.34;53.09;100826.50;4822773;29;19928;-64
2022/12/21 03:17:35;;;;;;;11.82;5.72;;;;;;;17.34;52.29;100818.38;4822541;29;20042;-63
2022/12/21 03:20:19;;;;;;;13.60;4.72;;;;;;;17.33;52.54;100822.13;4822604;29;20045;-64
2022/12/21 03:23:02;;;;;;;10.05;4.97;;;;;;;17.33;52.79;100813.16;4822158;29;20045;-64
2022/12/21 03:25:31;;;;;;;8.95;4.75;;;;;;;17.32;52.92;100819.56;4806735;29;20038;-64
2022/12/21 03:28:01;;;;;;;12.77;4.70;;;;;;;17.32;53.01;100823.13;4807123;29;20035;-64
2022/12/21 03:30:29;;;;;;;11.02;4.40;;;;;;;17.30;53.24;100813.50;4791669;29;20515;-64
2022/12/21 03:32:59;;;;;;;7.35;4.28;;;;;;;17.31;52.07;100812.47;4806369;29;20057;-64
2022/12/21 03:35:31;;;;;;;10.70;4.15;;;;;;;17.30;53.47;100818.91;4791786;29;20039;-69
2022/12/21 03:37:58;;;;;;;10.10;4.80;;;;;;;17.27;52.81;100819.25;4828151;29;20047;-67
2022/12/21 03:40:25;;;;;;;10.60;4.20;;;;;;;17.26;51.90;100817.56;4865632;29;20036;-68
2022/12/21 03:43:07;;;;;;;9.63;4.82;;;;;;;17.22;53.35;100808.09;4880631;29;20044;-68
2022/12/21 03:45:36;;;;;;;11.43;3.97;;;;;;;17.23;53.26;100812.47;4881034;29;20401;-68
2022/12/21 03:48:10;;;;;;;9.57;4.50;;;;;;;17.21;52.89;100814.53;4881061;29;20569;-67
2022/12/21 03:50:39;;;;;;;8.52;4.03;;;;;;;17.21;53.10;100815.38;4865333;29;20092;-67
2022/12/21 03:53:10;;;;;;;11.05;4.32;;;;;;;17.21;53.22;100803.69;4881115;29;20037;-68
2022/12/21 03:55:37;;;;;;;7.05;3.63;;;;;;;17.20;53.09;100802.00;4880840;29;20036;-68
2022/12/21 03:58:04;;;;;;;7.57;3.22;;;;;;;17.20;52.73;100808.25;4881202;29;20429;-68
2022/12/21 04:00:41;;;;;;;8.68;4.13;;;;;;;17.22;53.30;100816.22;4868173;29;20052;-68
2022/12/21 04:03:29;;;;;;;10.48;4.60;;;;;;;17.20;52.30;100802.00;4868648;29;20144;-68
2022/12/21 04:05:59;;;;;;;7.30;4.05;;;;;;;17.20;52.25;100812.81;4884291;29;20539;-67
2022/12/21 04:08:25;;;;;;;4.72;3.05;;;;;;;17.20;52.31;100804.69;4884164;29;20180;-67
2022/12/21 04:10:51;;;;;;;5.90;3.33;;;;;;;17.21;52.83;100798.28;4884658;29;20580;-68
2022/12/21 04:13:17;;;;;;;6.80;3.67;;;;;;;17.19;53.82;100789.50;4883959;29;20084;-68
2022/12/21 04:21:10;;;;;;;10.13;4.45;;;;;;;17.15;53.81;100796.25;4900756;29;20465;-67
2022/12/21 04:29:03;;;;;;;9.85;4.10;;;;;;;17.15;53.00;100782.72;4900890;29;20561;-65
2022/12/21 04:31:30;;;;;;;7.63;3.40;;;;;;;17.14;53.07;100786.47;4867215;29;20123;-65
2022/12/21 04:33:55;;;;;;;6.10;3.10;;;;;;;17.15;52.97;100788.13;4884841;29;20052;-65
2022/12/21 04:39:04;;;;;;;6.63;3.50;;;;;;;17.15;52.59;100782.72;4900518;29;20100;-64
2022/12/21 04:41:31;;;;;;;10.32;4.55;;;;;;;17.14;52.94;100775.66;4867877;29;20032;-64
2022/12/21 04:43:56;;;;;;;8.85;4.32;;;;;;;17.15;53.01;100782.72;4867737;29;20505;-64
2022/12/21 04:46:22;;;;;;;13.00;4.35;;;;;;;17.16;53.10;100784.44;4883221;29;20065;-64
2022/12/21 04:48:47;;;;;;;8.60;4.82;;;;;;;17.15;52.25;100782.72;4883992;29;20028;-63
2022/12/21 04:51:21;;;;;;;11.95;4.57;;;;;;;17.13;52.57;100779.34;4867790;29;20040;-64
2022/12/21 04:53:47;;;;;;;9.88;3.58;;;;;;;17.13;52.68;100779.34;4883463;29;20097;-63
2022/12/21 04:56:13;;;;;;;11.90;4.50;;;;;;;17.13;52.33;100790.19;4883289;29;20039;-63
2022/12/21 04:58:39;;;;;;;9.98;4.57;;;;;;;17.13;53.01;100784.75;4852411;29;20036;-63
2022/12/21 05:01:16;;;;;;;11.90;3.85;;;;;;;17.13;52.37;100782.06;4883248;29;20036;-63
2022/12/21 05:03:42;;;;;;;8.00;3.50;;;;;;;17.10;52.88;100785.09;4882840;29;20058;-63
2022/12/21 05:06:09;;;;;;;9.65;3.83;;;;;;;17.10;53.29;100780.53;4883230;29;20043;-63
2022/12/21 05:08:35;;;;;;;6.90;3.40;;;;;;;17.08;52.38;100773.63;4882936;29;20139;-63
2022/12/21 05:11:19;;;;;;;6.85;3.17;;;;;;;17.10;52.07;100777.84;4867480;29;20040;-63
2022/12/21 05:13:44;;;;;;;7.10;2.75;;;;;;;17.08;52.73;100776.31;4867526;29;20039;-63
2022/12/21 05:16:14;;;;;;;5.13;2.40;;;;;;;17.06;52.69;100781.91;4867868;29;20029;-63
2022/12/21 05:18:39;;;;;;;3.65;2.40;;;;;;;17.05;51.91;100776.66;4883136;29;20109;-63
2022/12/21 05:21:05;;;;;;;3.25;2.22;;;;;;;17.03;52.64;100778.72;4882737;29;20190;-64
2022/12/21 05:23:31;;;;;;;6.22;2.45;;;;;;;17.02;52.46;100782.41;4867038;29;20088;-63
2022/12/21 05:25:56;;;;;;;3.92;2.40;;;;;;;16.98;52.22;100770.25;4882784;29;20076;-65
2022/12/21 05:28:22;;;;;;;5.85;3.20;;;;;;;16.92;52.90;100777.19;4882718;29;20028;-67
2022/12/21 05:30:47;;;;;;;8.60;3.10;;;;;;;16.86;52.57;100780.59;4867703;29;20032;-67
2022/12/21 05:33:12;;;;;;;5.57;2.38;;;;;;;16.81;52.58;100791.06;4882733;29;20064;-67
2022/12/21 05:35:41;;;;;;;6.10;2.80;;;;;;;16.76;53.36;100783.47;4882614;29;20039;-68
2022/12/21 05:38:08;;;;;;;9.40;4.28;;;;;;;16.75;53.59;100797.19;4882845;29;20033;-68
2022/12/21 05:40:34;;;;;;;20.52;10.00;;;;;;;16.73;52.77;100810.00;4867054;29;20158;-67
2022/12/21 05:43:01;;;;;;;13.38;6.00;;;;;;;16.67;52.35;100806.13;4867385;29;20131;-67
2022/12/21 05:45:27;;;;;;;5.47;3.20;;;;;;;16.64;53.16;100794.78;4867456;29;20063;-67
2022/12/21 05:47:54;;;;;;;5.80;2.47;;;;;;;16.59;53.41;100795.31;4866998;29;20395;-67
2022/12/21 05:50:20;;;;;;;8.75;3.53;;;;;;;16.55;53.36;100796.66;4899217;29;20100;-67
2022/12/21 05:52:45;;;;;;;5.97;2.97;;;;;;;16.55;52.37;100791.25;4882337;29;20028;-68
2022/12/21 05:55:11;;;;;;;5.75;2.60;;;;;;;16.53;52.10;100790.56;4867104;29;20049;-67
2022/12/21 05:57:36;;;;;;;5.07;2.85;;;;;;;16.52;53.03;100796.97;4866422;29;20125;-67
2022/12/21 06:00:03;;;;;;;7.32;2.58;;;;;;;16.52;52.68;100790.72;4851324;29;20115;-66
2022/12/21 06:02:29;;;;;;;8.40;3.13;;;;;;;16.52;53.05;100788.84;4882395;29;20116;-65
2022/12/21 06:04:55;;;;;;;7.85;2.90;;;;;;;16.50;53.15;100788.16;4882310;29;20045;-64
2022/12/21 06:07:20;;;;;;;4.85;2.97;;;;;;;16.52;52.62;100796.97;4881720;29;20051;-64
2022/12/21 06:09:46;;;;;;;5.72;3.03;;;;;;;16.53;52.50;100797.78;4882618;29;20076;-64
2022/12/21 06:12:12;;;;;;;5.05;2.78;;;;;;;16.54;53.16;100792.25;4881781;29;20423;-63
2022/12/21 06:14:37;;;;;;;5.38;3.30;;;;;;;16.57;53.00;100799.19;4882123;29;20386;-64
2022/12/21 06:17:02;;;;;;;5.45;2.67;;;;;;;16.57;51.94;100789.22;4898738;29;20036;-63
2022/12/21 06:19:28;;;;;;;8.00;2.53;;;;;;;16.59;52.32;100798.00;4881617;29;20040;-63
2022/12/21 06:21:53;;;;;;;4.53;2.83;;;;;;;16.60;52.27;100796.16;4882419;29;20037;-63
2022/12/21 06:24:18;;;;;;;6.13;2.33;;;;;;;16.62;51.88;100796.81;4851076;29;20059;-64
2022/12/21 06:26:44;;;;;;;5.05;2.30;;;;;;;16.61;51.64;100792.44;4881567;29;20041;-63
2022/12/21 06:29:09;;;;;;;3.88;2.70;;;;;;;16.60;52.34;100788.88;4866174;29;20044;-63
2022/12/21 06:31:34;;;;;;;6.05;2.53;;;;;;;16.61;52.43;100797.84;4881958;29;20553;-63
2022/12/21 06:34:00;;;;;;;4.68;2.97;;;;;;;16.60;51.99;100788.88;4898890;29;20028;-63
2022/12/21 06:36:25;;;;;;;5.63;3.28;;;;;;;16.61;52.63;100784.34;4866205;29;20033;-63
2022/12/21 06:38:51;;;;;;;9.73;2.90;;;;;;;16.60;51.59;100797.00;4881739;29;20533;-63
2022/12/21 06:41:18;;;;;;;5.00;2.60;;;;;;;16.61;52.75;100787.03;4881900;29;20032;-64
2022/12/21 06:43:44;;;;;;;6.22;3.03;;;;;;;16.60;51.58;100788.03;4882010;29;20393;-64
2022/12/21 06:46:12;;;;;;;6.03;3.20;;;;;;;16.61;52.07;100795.16;4882131;29;20028;-63
2022/12/21 06:48:39;;;;;;;6.88;3.20;;;;;;;16.61;51.55;100800.56;4882014;29;20041;-65
2022/12/21 06:51:09;;;;;;;7.43;3.22;;;;;;;16.60;52.62;100799.72;4850668;29;20059;-65
2022/12/21 06:53:36;;;;;;;5.95;3.05;;;;;;;16.61;52.12;100805.97;4882418;29;20044;-65
2022/12/21 06:56:07;;;;;;;4.93;2.92;;;;;;;16.59;52.22;100808.81;4881874;29;20043;-65
2022/12/21 06:58:33;;;;;;;6.72;3.10;;;;;;;16.58;52.66;100804.41;4881647;29;20032;-65
2022/12/21 07:01:16;;;;;;;9.50;3.80;;;;;;;16.56;53.07;100802.91;4881636;29;20446;-65
2022/12/21 07:03:42;;;;;;;6.60;3.08;;;;;;;16.57;52.03;100810.00;4866102;29;20067;-65
2022/12/21 07:06:08;;;;;;;7.22;3.60;;;;;;;16.57;52.01;100810.84;4865266;29;20413;-65
2022/12/21 07:08:34;;;;;;;6.70;3.20;;;;;;;16.57;51.90;100810.84;4865675;29;20051;-65
2022/12/21 07:11:09;;;;;;;11.13;4.60;;;;;;;16.55;52.34;100812.91;4881788;29;20568;-65
2022/12/21 07:13:39;;;;;;;10.13;4.20;;;;;;;16.54;52.76;100813.91;4881723;29;20556;-65
2022/12/21 07:16:05;;;;;;;9.10;3.47;;;;;;;16.52;52.23;100813.19;4866577;29;20040;-65
2022/12/21 07:18:31;;;;;;;5.38;2.72;;;;;;;16.51;51.78;100811.50;4865691;29;20549;-64
2022/12/21 07:21:02;;;;;;;5.70;3.42;;;;;;;16.47;52.82;100815.53;4881101;29;20059;-64
2022/12/21 07:23:29;;;;;;;8.85;2.95;;;;;;;16.47;53.35;100818.22;4881660;29;20087;-65
2022/12/21 07:25:54;;;;;;;14.52;3.85;;;;;;;16.46;53.25;100824.69;4877331;29;20466;-65
2022/12/21 07:28:20;;;;;;;6.00;3.10;;;;;;;16.46;52.01;100816.56;4864308;29;20068;-65
2022/12/21 07:30:48;;;;;;;9.57;4.05;;;;;;;16.45;52.59;100822.97;4851368;29;20037;-64
2022/12/21 07:33:15;;;;;;;7.38;4.25;;;;;;;16.45;52.78;100822.13;4866857;29;20107;-65
2022/12/21 07:35:40;;;;;;;11.70;4.22;;;;;;;16.44;51.91;100832.13;4869461;29;20417;-65
2022/12/21 07:38:05;;;;;;;8.65;4.03;;;;;;;16.42;53.04;100834.13;4901938;29;20041;-64
2022/12/21 07:40:31;;;;;;;12.38;4.93;;;;;;;16.40;52.13;100833.44;4884531;29;20079;-64
2022/12/21 07:42:56;;;;;;;9.98;3.97;;;;;;;16.36;53.37;100845.59;4901750;29;20036;-65
2022/12/21 07:45:22;;;;;;;9.13;4.38;;;;;;;16.39;52.12;100858.78;4901554;29;20394;-64
2022/12/21 07:47:47;;;;;;;10.02;4.05;;;;;;;16.39;53.09;100875.00;4884820;29;20639;-65
2022/12/21 07:50:13;;;;;;;11.40;3.95;;;;;;;16.35;52.87;100876.38;4885297;29;20047;-67
2022/12/21 07:52:39;;;;;;;7.63;4.57;;;;;;;16.27;52.97;100887.16;4854202;29;20033;-69
2022/12/21 07:55:08;;;;;;;7.88;4.05;;;;;;;16.21;53.06;100893.22;4869884;29;20097;-69
2022/12/21 07:57:33;;;;;;;13.00;4.97;;;;;;;16.16;52.69;100884.75;4869822;29;20028;-69
2022/12/21 07:59:58;;;;;;;10.40;4.82;;;;;;;16.14;53.61;100874.09;4853416;29;20168;-69
2022/12/21 08:02:24;;;;;;;10.18;4.72;;;;;;;16.11;53.05;100868.16;4884265;29;20055;-69
2022/12/21 08:04:49;;;;;;;14.73;4.38;;;;;;;16.12;53.59;100872.56;4883950;29;20048;-69
2022/12/21 08:07:15;;;;;;;10.27;4.47;;;;;;;16.11;52.98;100868.16;4868481;29;20033;-69
2022/12/21 08:09:40;;;;;;;8.43;4.25;;;;;;;16.11;52.61;100878.97;4853785;29;20029;-68
2022/12/21 08:12:06;;;;;;;10.48;4.50;;;;;;;16.10;53.96;100882.69;4868711;29;20442;-67
2022/12/21 08:14:31;;;;;;;8.85;4.47;;;;;;;16.10;53.52;100877.31;4868013;29;20064;-66
2022/12/21 08:16:57;;;;;;;12.50;4.75;;;;;;;16.14;52.49;100879.50;4884011;29;20040;-67
2022/12/21 08:19:22;;;;;;;14.05;4.40;;;;;;;16.17;53.28;100883.72;4883959;29;20039;-66
2022/12/21 08:21:47;;;;;;;5.78;3.70;;;;;;;16.20;53.49;100891.50;4901097;29;20032;-65
2022/12/21 08:24:13;;;;;;;8.07;3.53;;;;;;;16.21;53.93;100885.09;4868216;29;20029;-65
2022/12/21 08:26:38;;;;;;;7.22;3.67;;;;;;;16.25;52.75;100881.91;4883767;29;20497;-66
2022/12/21 08:29:05;;;;;;;13.60;4.65;;;;;;;16.28;52.48;100891.53;4883709;29;20124;-65
2022/12/21 08:31:30;;;;;;;9.38;4.32;;;;;;;16.32;53.58;100892.91;4883828;29;20072;-65
2022/12/21 08:33:55;;;;;;;10.13;4.50;;;;;;;16.34;52.19;100896.28;4868393;29;20029;-65
2022/12/21 08:36:22;;;;;;;8.90;3.90;;;;;;;16.39;52.56;100891.22;4883238;29;20049;-65
2022/12/21 08:38:48;;;;;;;11.20;3.63;;;;;;;16.46;53.31;100897.69;4868145;29;20055;-65
2022/12/21 08:41:15;;;;;;;7.22;3.65;;;;;;;16.51;51.77;100914.25;4852633;29;20037;-65
2022/12/21 08:43:40;;;;;;;4.47;3.00;;;;;;;16.50;53.17;100907.13;4867967;29;20092;-65
2022/12/21 08:46:08;;;;;;;4.95;2.75;;;;;;;16.52;53.04;100905.13;4867721;29;20037;-63
2022/12/21 08:48:33;;;;;;;9.18;2.72;;;;;;;16.51;52.94;100903.44;4883358;29;20044;-63
2022/12/21 08:50:59;;;;;;;4.53;2.65;;;;;;;16.52;53.00;100905.13;4868026;29;20036;-63
2022/12/21 08:53:25;;;;;;;7.07;2.35;;;;;;;16.58;53.00;100909.06;4883094;29;20047;-65
2022/12/21 08:55:51;;;;;;;4.30;2.60;;;;;;;16.63;52.59;100912.97;4867796;29;20506;-63
2022/12/21 08:58:16;;;;;;;9.75;2.50;;;;;;;16.69;51.81;100911.47;4882486;29;20067;-64
2022/12/21 09:00:42;;;;;;;4.30;2.17;;;;;;;16.75;52.19;100922.44;4883135;29;20052;-65
2022/12/21 09:03:09;;;;;;;6.65;3.25;;;;;;;16.77;51.84;100927.69;4882472;29;20060;-65
2022/12/21 09:05:35;;;;;;;4.57;2.38;;;;;;;16.77;52.03;100923.13;4883352;29;20076;-65
2022/12/21 09:08:01;;;;;;;5.43;2.75;;;;;;;16.80;51.58;100925.50;4867749;29;20079;-65
2022/12/21 09:10:27;;;;;;;4.32;2.35;;;;;;;16.82;52.24;100923.47;4883026;29;20035;-65
2022/12/21 09:12:54;;;;;;;5.00;2.38;;;;;;;16.83;52.10;100932.44;4900348;29;20029;-64
2022/12/21 09:15:20;;;;;;;10.80;3.22;;;;;;;16.83;52.03;100930.56;4852129;29;20063;-65
2022/12/21 09:17:46;;;;;;;8.52;3.10;;;;;;;16.82;51.72;100928.03;4899411;29;20033;-65
2022/12/21 09:20:11;;;;;;;12.95;3.42;;;;;;;16.81;52.46;100931.75;4882524;29;20047;-64
2022/12/21 09:22:37;;;;;;;8.55;2.92;;;;;;;16.79;52.63;100925.66;4882961;29;20145;-65
2022/12/21 09:25:03;;;;;;;13.23;3.30;;;;;;;16.80;51.70;100940.91;4883079;29;20025;-65
2022/12/21 09:27:28;;;;;;;9.15;3.80;;;;;;;16.80;52.91;100941.75;4867138;29;20033;-65
2022/12/21 09:29:54;;;;;;;13.65;4.38;;;;;;;16.80;52.17;100932.78;4899576;29;20425;-64
2022/12/21 09:32:19;;;;;;;12.13;4.22;;;;;;;16.84;51.80;100937.69;4882884;29;20406;-64
2022/12/21 09:34:44;;;;;;;11.75;3.00;;;;;;;16.91;52.19;100931.59;4899485;29;20111;-63
2022/12/21 09:37:10;;;;;;;8.38;3.78;;;;;;;16.92;52.05;100925.19;4851703;29;20441;-65
2022/12/21 09:39:37;;;;;;;5.20;2.65;;;;;;;16.96;51.13;100929.22;4882404;29;20080;-65
2022/12/21 09:42:05;;;;;;;10.27;3.17;;;;;;;17.04;51.59;100942.78;4899299;29;20501;-64
2022/12/21 09:44:39;;;;;;;14.95;4.68;;;;;;;17.10;52.48;100950.22;4899183;29;20045;-63
2022/12/21 09:47:07;;;;;;;7.47;3.13;;;;;;;17.13;51.46;100952.59;4882241;29;20060;-64
2022/12/21 09:49:39;;;;;;;10.45;3.40;;;;;;;17.21;51.86;100960.72;4866870;29;20028;-64
2022/12/21 09:52:06;;;;;;;9.38;3.72;;;;;;;17.28;51.14;100959.03;4882710;29;20036;-64
2022/12/21 09:54:46;;;;;;;8.68;3.80;;;;;;;17.35;50.49;100963.59;4881668;29;20065;-63
2022/12/21 09:57:12;;;;;;;14.48;3.28;;;;;;;17.39;50.92;100961.41;4897927;29;20029;-65
2022/12/21 09:59:38;;;;;;;9.90;3.35;;;;;;;17.44;51.36;100969.88;4882085;29;20036;-67
2022/12/21 10:02:25;;;;;;;9.65;3.28;;;;;;;17.46;51.34;100970.53;4899071;29;20028;-66
2022/12/21 10:05:16;;;;;;;9.73;3.53;;;;;;;17.49;51.57;100962.06;4881931;29;20051;-66
2022/12/21 10:08:09;;;;;;;8.43;4.63;;;;;;;17.49;50.73;100964.78;4866400;29;20507;-65
2022/12/21 10:10:34;;;;;;;10.47;2.67;;;;;;;17.55;51.66;100953.28;4882006;29;20045;-66
2022/12/21 10:13:11;;;;;;;5.70;2.25;;;;;;;17.53;51.40;100960.72;4882378;29;20039;-67
2022/12/21 10:16:13;;;;;;;8.98;3.00;;;;;;;17.49;51.21;100953.94;4866188;29;20132;-65
2022/12/21 10:18:52;;;;;;;9.63;2.97;;;;;;;17.47;51.38;100955.97;4859338;29;20513;-66
2022/12/21 10:21:55;;;;;;;9.90;2.47;;;;;;;17.48;51.95;100952.25;4882213;29;20052;-66
2022/12/21 10:24:22;;;;;;;;;;;;;;;17.46;51.23;100951.56;4871687;29;20099;-66
2022/12/21 10:26:52;;;;;;;19.38;4.95;;;;;;;17.45;51.19;100949.88;4898775;29;19962;-67
2022/12/21 10:29:20;;;;;;;22.88;6.43;;;;;;;17.46;50.99;100943.44;4881912;29;20045;-67
2022/12/21 10:31:46;;;;;;;8.05;3.05;;;;;;;17.66;50.02;100944.81;4881866;29;20059;-66
2022/12/21 10:34:26;;;;;;;3.08;1.55;;;;;;;17.71;50.10;100958.69;4866574;29;20024;-66
2022/12/21 10:37:00;;;;;;;8.13;2.25;;;;;;;18.00;50.43;100947.28;4881908;29;20083;-67
2022/12/21 10:39:26;;;;;;;7.80;2.25;;;;;;;18.12;50.22;100947.75;4898456;29;20413;-67
2022/12/21 10:42:04;;;;;;;6.15;2.20;;;;;;;18.29;50.15;100941.22;4865830;29;20043;-66
2022/12/21 10:44:29;;;;;;;7.68;2.10;;;;;;;18.44;49.75;100925.91;4897875;29;20394;-67
2022/12/21 10:46:55;;;;;;;11.80;2.08;;;;;;;18.48;49.88;100919.13;4866038;29;20043;-66
2022/12/21 10:50:01;;;;;;;7.07;4.07;;;;;;;18.57;49.42;100927.03;4881452;29;20091;-66
2022/12/21 10:52:40;;;;;;;4.18;1.65;;;;;;;18.74;49.45;100925.06;4877093;29;20040;-67
2022/12/21 10:55:18;;;;;;;5.68;1.45;;;;;;;18.67;49.72;100924.09;4881703;29;20084;-67
2022/12/21 10:57:53;;;;;;;3.72;1.30;;;;;;;18.58;49.62;100914.31;4881470;29;20040;-66
2022/12/21 11:00:27;;;;;;;9.55;1.75;;;;;;;18.53;50.09;100916.72;4881192;29;20051;-66
2022/12/21 11:02:56;;;;;;;8.88;1.70;;;;;;;18.51;49.46;100918.75;4865505;29;20043;-66
2022/12/21 11:05:34;;;;;;;7.35;1.20;;;;;;;18.47;49.66;100912.84;4866117;29;20048;-66
2022/12/21 11:08:18;;;;;;;10.90;1.40;;;;;;;18.44;49.85;100917.75;4882016;29;20464;-66
2022/12/21 11:10:49;;;;;;;2.28;1.35;;;;;;;18.44;49.87;100917.75;4869387;29;20396;-66
2022/12/21 11:13:16;;;;;;;3.78;0.95;;;;;;;18.46;49.67;100918.41;4869922;29;20032;-67
2022/12/21 11:15:58;;;;;;;5.35;1.35;;;;;;;18.46;49.75;100915.69;4885560;29;20016;-67
2022/12/21 11:18:45;;;;;;;5.22;1.67;;;;;;;18.45;49.06;100909.44;4869697;29;20028;-66
2022/12/21 11:21:25;;;;;;;6.15;1.40;;;;;;;18.50;49.59;100906.22;4901633;29;20037;-66
2022/12/21 11:24:24;;;;;;;3.97;1.48;;;;;;;18.52;49.08;100904.19;4885161;29;20068;-66
2022/12/21 11:26:51;;;;;;;8.25;1.83;;;;;;;18.49;49.16;100909.97;4851090;29;20049;-66
2022/12/21 11:29:23;;;;;;;5.63;1.77;;;;;;;18.49;49.33;100899.97;4901693;29;20053;-66
2022/12/21 11:31:49;;;;;;;4.40;1.45;;;;;;;18.49;49.62;100904.53;4884650;29;20119;-66
2022/12/21 11:34:21;;;;;;;3.08;1.63;;;;;;;18.47;49.26;100896.56;4885080;29;20119;-66
2022/12/21 11:36:59;;;;;;;6.97;1.77;;;;;;;18.52;48.89;100904.19;4869811;29;20025;-66
2022/12/21 11:39:25;;;;;;;7.22;1.80;;;;;;;18.51;49.26;100887.03;4885578;29;20096;-66
2022/12/21 11:41:52;;;;;;;9.10;1.88;;;;;;;18.51;48.83;100886.19;4853992;29;20037;-66
2022/12/21 11:44:22;;;;;;;3.63;1.67;;;;;;;18.54;48.85;100888.56;4884829;29;20061;-66
2022/12/21 11:47:03;;;;;;;6.03;1.90;;;;;;;18.52;49.45;100890.59;4884561;29;20099;-66
2022/12/21 11:49:41;;;;;;;6.05;2.10;;;;;;;18.51;48.94;100899.75;4869017;29;20047;-66
2022/12/21 11:52:47;;;;;;;5.15;1.60;;;;;;;18.45;48.98;100895.03;4884846;29;20035;-66